sensor_id;sensor_type;location;lat;lon;timestamp;P1;durP1;ratioP1;P2;durP2;ratioP2
75614;SDS011;64199;48.578;-4.520;2024-02-26T00:00:33;2.85;;;1.10;;
75614;SDS011;64199;48.578;-4.520;2024-02-26T00:03:00;3.28;;;1.02;;
75614;SDS011;64199;48.578;-4.520;2024-02-26T00:05:26;3.33;;;1.35;;
75614;SDS011;64199;48.578;-4.520;2024-02-26T00:07:52;4.38;;;0.82;;
75614;SDS011;64199;48.578;-4.520;2024-02-26T00:10:17;3.28;;;1.23;;
75614;SDS011;64199;48.578;-4.520;2024-02-26T00:12:43;4.15;;;1.10;;
75614;SDS011;64199;48.578;-4.520;2024-02-26T00:15:09;1.88;;;1.10;;
75614;SDS011;64199;48.578;-4.520;2024-02-26T00:17:36;3.03;;;1.20;;
75614;SDS011;64199;48.578;-4.520;2024-02-26T00:20:02;2.33;;;1.00;;
75614;SDS011;64199;48.578;-4.520;2024-02-26T00:22:38;4.03;;;1.08;;
75614;SDS011;64199;48.578;-4.520;2024-02-26T00:25:04;4.63;;;1.13;;
75614;SDS011;64199;48.578;-4.520;2024-02-26T00:27:31;4.10;;;1.05;;
75614;SDS011;64199;48.578;-4.520;2024-02-26T00:29:56;5.43;;;1.30;;
75614;SDS011;64199;48.578;-4.520;2024-02-26T00:32:22;3.75;;;1.27;;
75614;SDS011;64199;48.578;-4.520;2024-02-26T00:34:48;5.30;;;1.30;;
75614;SDS011;64199;48.578;-4.520;2024-02-26T00:37:15;3.20;;;1.20;;
75614;SDS011;64199;48.578;-4.520;2024-02-26T00:39:41;4.95;;;1.70;;
75614;SDS011;64199;48.578;-4.520;2024-02-26T00:42:07;2.80;;;1.20;;
75614;SDS011;64199;48.578;-4.520;2024-02-26T00:44:33;4.60;;;1.30;;
75614;SDS011;64199;48.578;-4.520;2024-02-26T00:46:58;5.07;;;1.40;;
75614;SDS011;64199;48.578;-4.520;2024-02-26T00:49:24;3.65;;;1.23;;
75614;SDS011;64199;48.578;-4.520;2024-02-26T00:51:51;4.07;;;1.70;;
75614;SDS011;64199;48.578;-4.520;2024-02-26T00:54:16;4.10;;;1.42;;
75614;SDS011;64199;48.578;-4.520;2024-02-26T00:56:42;3.67;;;1.15;;
75614;SDS011;64199;48.578;-4.520;2024-02-26T00:59:08;2.35;;;1.13;;
75614;SDS011;64199;48.578;-4.520;2024-02-26T01:01:34;5.70;;;1.60;;
75614;SDS011;64199;48.578;-4.520;2024-02-26T01:04:00;3.50;;;1.20;;
75614;SDS011;64199;48.578;-4.520;2024-02-26T01:06:26;5.72;;;1.42;;
75614;SDS011;64199;48.578;-4.520;2024-02-26T01:08:52;3.78;;;1.40;;
75614;SDS011;64199;48.578;-4.520;2024-02-26T01:11:17;3.40;;;1.50;;
75614;SDS011;64199;48.578;-4.520;2024-02-26T01:13:43;5.55;;;1.60;;
75614;SDS011;64199;48.578;-4.520;2024-02-26T01:16:09;5.28;;;1.38;;
75614;SDS011;64199;48.578;-4.520;2024-02-26T01:18:36;7.75;;;1.40;;
75614;SDS011;64199;48.578;-4.520;2024-02-26T01:21:01;4.72;;;1.63;;
75614;SDS011;64199;48.578;-4.520;2024-02-26T01:23:29;3.78;;;1.30;;
75614;SDS011;64199;48.578;-4.520;2024-02-26T01:25:55;2.97;;;1.13;;
75614;SDS011;64199;48.578;-4.520;2024-02-26T01:28:21;3.63;;;1.33;;
75614;SDS011;64199;48.578;-4.520;2024-02-26T01:30:47;4.90;;;1.40;;
75614;SDS011;64199;48.578;-4.520;2024-02-26T01:33:13;3.72;;;1.45;;
75614;SDS011;64199;48.578;-4.520;2024-02-26T01:35:38;4.03;;;1.15;;
75614;SDS011;64199;48.578;-4.520;2024-02-26T01:38:04;4.25;;;1.48;;
75614;SDS011;64199;48.578;-4.520;2024-02-26T01:40:30;7.32;;;1.90;;
75614;SDS011;64199;48.578;-4.520;2024-02-26T01:42:56;6.78;;;1.50;;
75614;SDS011;64199;48.578;-4.520;2024-02-26T01:45:22;5.75;;;1.65;;
75614;SDS011;64199;48.578;-4.520;2024-02-26T01:47:51;3.95;;;1.10;;
75614;SDS011;64199;48.578;-4.520;2024-02-26T01:50:18;3.28;;;1.00;;
75614;SDS011;64199;48.578;-4.520;2024-02-26T01:52:47;3.75;;;1.50;;
75614;SDS011;64199;48.578;-4.520;2024-02-26T01:55:15;3.72;;;1.35;;
75614;SDS011;64199;48.578;-4.520;2024-02-26T01:57:42;5.10;;;1.45;;
75614;SDS011;64199;48.578;-4.520;2024-02-26T02:00:09;5.25;;;1.40;;
75614;SDS011;64199;48.578;-4.520;2024-02-26T02:02:35;6.20;;;1.45;;
75614;SDS011;64199;48.578;-4.520;2024-02-26T02:05:01;5.53;;;1.52;;
75614;SDS011;64199;48.578;-4.520;2024-02-26T02:07:28;3.80;;;1.40;;
75614;SDS011;64199;48.578;-4.520;2024-02-26T02:09:55;6.78;;;1.50;;
75614;SDS011;64199;48.578;-4.520;2024-02-26T02:12:21;3.88;;;1.20;;
75614;SDS011;64199;48.578;-4.520;2024-02-26T02:14:47;3.80;;;1.33;;
75614;SDS011;64199;48.578;-4.520;2024-02-26T02:17:13;3.45;;;1.27;;
75614;SDS011;64199;48.578;-4.520;2024-02-26T02:19:39;3.35;;;1.10;;
75614;SDS011;64199;48.578;-4.520;2024-02-26T02:22:05;3.65;;;1.52;;
75614;SDS011;64199;48.578;-4.520;2024-02-26T02:24:30;4.85;;;1.30;;
75614;SDS011;64199;48.578;-4.520;2024-02-26T02:26:56;4.10;;;1.38;;
75614;SDS011;64199;48.578;-4.520;2024-02-26T02:29:22;2.92;;;1.20;;
75614;SDS011;64199;48.578;-4.520;2024-02-26T02:31:48;6.13;;;1.70;;
75614;SDS011;64199;48.578;-4.520;2024-02-26T02:34:15;2.78;;;1.15;;
75614;SDS011;64199;48.578;-4.520;2024-02-26T02:36:53;5.80;;;1.33;;
75614;SDS011;64199;48.578;-4.520;2024-02-26T02:39:20;6.25;;;1.42;;
75614;SDS011;64199;48.578;-4.520;2024-02-26T02:41:46;6.45;;;1.67;;
75614;SDS011;64199;48.578;-4.520;2024-02-26T02:44:12;3.05;;;1.25;;
75614;SDS011;64199;48.578;-4.520;2024-02-26T02:46:38;7.43;;;1.48;;
75614;SDS011;64199;48.578;-4.520;2024-02-26T02:49:07;3.63;;;1.30;;
75614;SDS011;64199;48.578;-4.520;2024-02-26T02:51:37;4.95;;;2.03;;
75614;SDS011;64199;48.578;-4.520;2024-02-26T02:54:03;5.30;;;2.00;;
75614;SDS011;64199;48.578;-4.520;2024-02-26T02:56:29;4.00;;;1.42;;
75614;SDS011;64199;48.578;-4.520;2024-02-26T02:58:54;4.82;;;2.03;;
75614;SDS011;64199;48.578;-4.520;2024-02-26T03:01:20;5.60;;;1.90;;
75614;SDS011;64199;48.578;-4.520;2024-02-26T03:03:46;3.75;;;1.33;;
75614;SDS011;64199;48.578;-4.520;2024-02-26T03:06:12;4.00;;;1.70;;
75614;SDS011;64199;48.578;-4.520;2024-02-26T03:08:38;3.40;;;1.58;;
75614;SDS011;64199;48.578;-4.520;2024-02-26T03:11:05;4.68;;;1.45;;
75614;SDS011;64199;48.578;-4.520;2024-02-26T03:13:31;5.93;;;1.98;;
75614;SDS011;64199;48.578;-4.520;2024-02-26T03:15:56;5.88;;;1.83;;
75614;SDS011;64199;48.578;-4.520;2024-02-26T03:18:22;4.18;;;1.58;;
75614;SDS011;64199;48.578;-4.520;2024-02-26T03:20:49;5.30;;;1.90;;
75614;SDS011;64199;48.578;-4.520;2024-02-26T03:23:15;4.47;;;1.50;;
75614;SDS011;64199;48.578;-4.520;2024-02-26T03:25:42;3.30;;;1.40;;
75614;SDS011;64199;48.578;-4.520;2024-02-26T03:28:11;6.30;;;1.80;;
75614;SDS011;64199;48.578;-4.520;2024-02-26T03:30:37;6.22;;;1.70;;
75614;SDS011;64199;48.578;-4.520;2024-02-26T03:33:03;5.55;;;1.77;;
75614;SDS011;64199;48.578;-4.520;2024-02-26T03:35:29;5.13;;;1.40;;
75614;SDS011;64199;48.578;-4.520;2024-02-26T03:37:55;6.13;;;1.80;;
75614;SDS011;64199;48.578;-4.520;2024-02-26T03:40:21;4.40;;;1.83;;
75614;SDS011;64199;48.578;-4.520;2024-02-26T03:42:47;4.35;;;1.85;;
75614;SDS011;64199;48.578;-4.520;2024-02-26T03:45:12;3.80;;;1.55;;
75614;SDS011;64199;48.578;-4.520;2024-02-26T03:47:38;3.80;;;1.80;;
75614;SDS011;64199;48.578;-4.520;2024-02-26T03:50:07;3.20;;;1.23;;
75614;SDS011;64199;48.578;-4.520;2024-02-26T03:52:33;3.90;;;1.67;;
75614;SDS011;64199;48.578;-4.520;2024-02-26T03:54:59;4.75;;;1.73;;
75614;SDS011;64199;48.578;-4.520;2024-02-26T03:57:25;6.97;;;1.77;;
75614;SDS011;64199;48.578;-4.520;2024-02-26T03:59:51;6.00;;;1.92;;
75614;SDS011;64199;48.578;-4.520;2024-02-26T04:02:17;4.88;;;1.60;;
75614;SDS011;64199;48.578;-4.520;2024-02-26T04:04:45;3.47;;;1.20;;
75614;SDS011;64199;48.578;-4.520;2024-02-26T04:07:11;4.80;;;1.60;;
75614;SDS011;64199;48.578;-4.520;2024-02-26T04:09:38;2.67;;;1.30;;
75614;SDS011;64199;48.578;-4.520;2024-02-26T04:12:04;2.42;;;1.33;;
75614;SDS011;64199;48.578;-4.520;2024-02-26T04:14:30;3.40;;;1.42;;
75614;SDS011;64199;48.578;-4.520;2024-02-26T04:16:56;4.38;;;1.63;;
75614;SDS011;64199;48.578;-4.520;2024-02-26T04:19:22;6.18;;;1.73;;
75614;SDS011;64199;48.578;-4.520;2024-02-26T04:21:48;5.43;;;2.00;;
75614;SDS011;64199;48.578;-4.520;2024-02-26T04:24:13;4.97;;;2.00;;
75614;SDS011;64199;48.578;-4.520;2024-02-26T04:26:39;4.60;;;1.55;;
75614;SDS011;64199;48.578;-4.520;2024-02-26T04:29:05;4.72;;;1.60;;
75614;SDS011;64199;48.578;-4.520;2024-02-26T04:31:31;4.72;;;1.52;;
75614;SDS011;64199;48.578;-4.520;2024-02-26T04:33:58;5.20;;;1.70;;
75614;SDS011;64199;48.578;-4.520;2024-02-26T04:36:24;5.93;;;1.73;;
75614;SDS011;64199;48.578;-4.520;2024-02-26T04:38:51;4.82;;;1.90;;
75614;SDS011;64199;48.578;-4.520;2024-02-26T04:41:19;4.35;;;1.50;;
75614;SDS011;64199;48.578;-4.520;2024-02-26T04:43:45;4.53;;;1.52;;
75614;SDS011;64199;48.578;-4.520;2024-02-26T04:46:11;5.32;;;1.80;;
75614;SDS011;64199;48.578;-4.520;2024-02-26T04:48:37;4.20;;;1.48;;
75614;SDS011;64199;48.578;-4.520;2024-02-26T04:51:03;3.67;;;1.50;;
75614;SDS011;64199;48.578;-4.520;2024-02-26T04:53:29;4.45;;;1.75;;
75614;SDS011;64199;48.578;-4.520;2024-02-26T04:55:56;5.30;;;1.92;;
75614;SDS011;64199;48.578;-4.520;2024-02-26T04:58:22;4.82;;;1.70;;
75614;SDS011;64199;48.578;-4.520;2024-02-26T05:00:48;5.13;;;1.65;;
75614;SDS011;64199;48.578;-4.520;2024-02-26T05:03:14;5.32;;;1.73;;
75614;SDS011;64199;48.578;-4.520;2024-02-26T05:05:43;5.10;;;1.50;;
75614;SDS011;64199;48.578;-4.520;2024-02-26T05:08:09;4.95;;;1.80;;
75614;SDS011;64199;48.578;-4.520;2024-02-26T05:10:36;3.85;;;1.70;;
75614;SDS011;64199;48.578;-4.520;2024-02-26T05:13:05;5.13;;;1.85;;
75614;SDS011;64199;48.578;-4.520;2024-02-26T05:15:32;6.15;;;2.15;;
75614;SDS011;64199;48.578;-4.520;2024-02-26T05:17:57;5.47;;;1.80;;
75614;SDS011;64199;48.578;-4.520;2024-02-26T05:20:24;4.68;;;1.77;;
75614;SDS011;64199;48.578;-4.520;2024-02-26T05:22:50;4.90;;;1.80;;
75614;SDS011;64199;48.578;-4.520;2024-02-26T05:25:16;6.70;;;1.85;;
75614;SDS011;64199;48.578;-4.520;2024-02-26T05:27:43;8.40;;;2.13;;
75614;SDS011;64199;48.578;-4.520;2024-02-26T05:30:09;4.78;;;1.92;;
75614;SDS011;64199;48.578;-4.520;2024-02-26T05:32:36;5.05;;;2.08;;
75614;SDS011;64199;48.578;-4.520;2024-02-26T05:35:02;6.85;;;2.53;;
75614;SDS011;64199;48.578;-4.520;2024-02-26T05:37:29;6.07;;;1.80;;
75614;SDS011;64199;48.578;-4.520;2024-02-26T05:39:55;4.18;;;1.73;;
75614;SDS011;64199;48.578;-4.520;2024-02-26T05:42:21;6.90;;;1.80;;
75614;SDS011;64199;48.578;-4.520;2024-02-26T05:44:47;4.25;;;1.98;;
75614;SDS011;64199;48.578;-4.520;2024-02-26T05:47:12;7.00;;;2.28;;
75614;SDS011;64199;48.578;-4.520;2024-02-26T05:49:42;6.32;;;1.92;;
75614;SDS011;64199;48.578;-4.520;2024-02-26T05:52:08;3.92;;;1.73;;
75614;SDS011;64199;48.578;-4.520;2024-02-26T05:54:34;6.05;;;2.08;;
75614;SDS011;64199;48.578;-4.520;2024-02-26T05:57:00;6.55;;;1.92;;
75614;SDS011;64199;48.578;-4.520;2024-02-26T05:59:26;5.07;;;1.92;;
75614;SDS011;64199;48.578;-4.520;2024-02-26T06:01:52;6.68;;;2.03;;
75614;SDS011;64199;48.578;-4.520;2024-02-26T06:04:17;6.65;;;2.15;;
75614;SDS011;64199;48.578;-4.520;2024-02-26T06:06:44;8.88;;;2.60;;
75614;SDS011;64199;48.578;-4.520;2024-02-26T06:09:12;5.72;;;1.77;;
75614;SDS011;64199;48.578;-4.520;2024-02-26T06:11:38;4.55;;;1.83;;
75614;SDS011;64199;48.578;-4.520;2024-02-26T06:14:04;7.95;;;2.15;;
75614;SDS011;64199;48.578;-4.520;2024-02-26T06:16:30;5.07;;;1.80;;
75614;SDS011;64199;48.578;-4.520;2024-02-26T06:18:56;6.18;;;1.90;;
75614;SDS011;64199;48.578;-4.520;2024-02-26T06:21:22;6.43;;;1.90;;
75614;SDS011;64199;48.578;-4.520;2024-02-26T06:23:48;5.05;;;1.83;;
75614;SDS011;64199;48.578;-4.520;2024-02-26T06:26:15;6.28;;;1.83;;
75614;SDS011;64199;48.578;-4.520;2024-02-26T06:28:41;7.32;;;1.95;;
75614;SDS011;64199;48.578;-4.520;2024-02-26T06:31:07;7.22;;;2.10;;
75614;SDS011;64199;48.578;-4.520;2024-02-26T06:33:33;6.97;;;1.75;;
75614;SDS011;64199;48.578;-4.520;2024-02-26T06:35:58;4.80;;;1.88;;
75614;SDS011;64199;48.578;-4.520;2024-02-26T06:38:24;6.35;;;2.05;;
75614;SDS011;64199;48.578;-4.520;2024-02-26T06:40:50;6.68;;;1.92;;
75614;SDS011;64199;48.578;-4.520;2024-02-26T06:43:16;8.13;;;2.33;;
75614;SDS011;64199;48.578;-4.520;2024-02-26T06:45:41;6.43;;;2.20;;
75614;SDS011;64199;48.578;-4.520;2024-02-26T06:48:07;7.80;;;2.25;;
75614;SDS011;64199;48.578;-4.520;2024-02-26T06:50:33;8.80;;;2.17;;
75614;SDS011;64199;48.578;-4.520;2024-02-26T06:52:59;4.93;;;1.90;;
75614;SDS011;64199;48.578;-4.520;2024-02-26T06:55:25;6.65;;;2.20;;
75614;SDS011;64199;48.578;-4.520;2024-02-26T06:57:50;5.07;;;1.67;;
75614;SDS011;64199;48.578;-4.520;2024-02-26T07:00:16;4.50;;;1.70;;
75614;SDS011;64199;48.578;-4.520;2024-02-26T07:02:43;4.97;;;2.13;;
75614;SDS011;64199;48.578;-4.520;2024-02-26T07:05:09;6.75;;;2.00;;
75614;SDS011;64199;48.578;-4.520;2024-02-26T07:07:35;5.03;;;1.70;;
75614;SDS011;64199;48.578;-4.520;2024-02-26T07:10:01;5.13;;;1.85;;
75614;SDS011;64199;48.578;-4.520;2024-02-26T07:12:29;5.97;;;1.70;;
75614;SDS011;64199;48.578;-4.520;2024-02-26T07:14:55;5.82;;;2.08;;
75614;SDS011;64199;48.578;-4.520;2024-02-26T07:17:21;8.20;;;2.60;;
75614;SDS011;64199;48.578;-4.520;2024-02-26T07:19:47;5.68;;;1.85;;
75614;SDS011;64199;48.578;-4.520;2024-02-26T07:22:13;5.05;;;1.95;;
75614;SDS011;64199;48.578;-4.520;2024-02-26T07:24:39;7.13;;;2.15;;
75614;SDS011;64199;48.578;-4.520;2024-02-26T07:27:05;4.18;;;1.70;;
75614;SDS011;64199;48.578;-4.520;2024-02-26T07:29:31;4.03;;;1.65;;
75614;SDS011;64199;48.578;-4.520;2024-02-26T07:31:57;8.27;;;2.05;;
75614;SDS011;64199;48.578;-4.520;2024-02-26T07:34:23;7.18;;;2.05;;
75614;SDS011;64199;48.578;-4.520;2024-02-26T07:36:54;6.40;;;2.28;;
75614;SDS011;64199;48.578;-4.520;2024-02-26T07:39:20;6.40;;;2.20;;
75614;SDS011;64199;48.578;-4.520;2024-02-26T07:41:47;7.20;;;1.98;;
75614;SDS011;64199;48.578;-4.520;2024-02-26T07:44:15;5.65;;;2.15;;
75614;SDS011;64199;48.578;-4.520;2024-02-26T07:46:40;7.13;;;2.00;;
75614;SDS011;64199;48.578;-4.520;2024-02-26T07:49:06;4.97;;;2.08;;
75614;SDS011;64199;48.578;-4.520;2024-02-26T07:51:33;7.35;;;2.53;;
75614;SDS011;64199;48.578;-4.520;2024-02-26T07:54:00;5.05;;;1.98;;
75614;SDS011;64199;48.578;-4.520;2024-02-26T07:56:26;5.50;;;2.00;;
75614;SDS011;64199;48.578;-4.520;2024-02-26T07:58:51;7.65;;;2.45;;
75614;SDS011;64199;48.578;-4.520;2024-02-26T08:01:17;7.78;;;1.83;;
75614;SDS011;64199;48.578;-4.520;2024-02-26T08:03:43;4.50;;;1.50;;
75614;SDS011;64199;48.578;-4.520;2024-02-26T08:06:09;4.97;;;1.80;;
75614;SDS011;64199;48.578;-4.520;2024-02-26T08:08:35;7.07;;;1.80;;
75614;SDS011;64199;48.578;-4.520;2024-02-26T08:11:01;6.65;;;1.98;;
75614;SDS011;64199;48.578;-4.520;2024-02-26T08:13:27;3.83;;;1.67;;
75614;SDS011;64199;48.578;-4.520;2024-02-26T08:15:53;5.07;;;1.42;;
75614;SDS011;64199;48.578;-4.520;2024-02-26T08:18:19;7.53;;;2.20;;
75614;SDS011;64199;48.578;-4.520;2024-02-26T08:20:45;6.15;;;2.00;;
75614;SDS011;64199;48.578;-4.520;2024-02-26T08:23:13;6.43;;;1.95;;
75614;SDS011;64199;48.578;-4.520;2024-02-26T08:25:38;6.35;;;2.20;;
75614;SDS011;64199;48.578;-4.520;2024-02-26T08:28:04;6.35;;;1.88;;
75614;SDS011;64199;48.578;-4.520;2024-02-26T08:30:30;4.80;;;1.65;;
75614;SDS011;64199;48.578;-4.520;2024-02-26T08:32:56;7.45;;;2.35;;
75614;SDS011;64199;48.578;-4.520;2024-02-26T08:35:22;6.20;;;2.00;;
75614;SDS011;64199;48.578;-4.520;2024-02-26T08:37:48;6.45;;;1.60;;
75614;SDS011;64199;48.578;-4.520;2024-02-26T08:40:14;7.75;;;2.45;;
75614;SDS011;64199;48.578;-4.520;2024-02-26T08:42:40;6.80;;;2.15;;
75614;SDS011;64199;48.578;-4.520;2024-02-26T08:45:07;5.90;;;1.90;;
75614;SDS011;64199;48.578;-4.520;2024-02-26T08:47:33;5.32;;;1.95;;
75614;SDS011;64199;48.578;-4.520;2024-02-26T08:49:59;6.38;;;2.50;;
75614;SDS011;64199;48.578;-4.520;2024-02-26T08:52:25;6.05;;;1.73;;
75614;SDS011;64199;48.578;-4.520;2024-02-26T08:54:51;6.40;;;2.35;;
75614;SDS011;64199;48.578;-4.520;2024-02-26T08:57:16;7.43;;;2.30;;
75614;SDS011;64199;48.578;-4.520;2024-02-26T08:59:42;5.65;;;1.92;;
75614;SDS011;64199;48.578;-4.520;2024-02-26T09:02:08;5.25;;;1.48;;
75614;SDS011;64199;48.578;-4.520;2024-02-26T09:04:34;4.97;;;1.90;;
75614;SDS011;64199;48.578;-4.520;2024-02-26T09:07:01;4.97;;;1.83;;
75614;SDS011;64199;48.578;-4.520;2024-02-26T09:09:27;4.28;;;1.80;;
75614;SDS011;64199;48.578;-4.520;2024-02-26T09:11:53;5.82;;;1.83;;
75614;SDS011;64199;48.578;-4.520;2024-02-26T09:14:20;6.00;;;1.58;;
75614;SDS011;64199;48.578;-4.520;2024-02-26T09:16:46;5.90;;;1.98;;
75614;SDS011;64199;48.578;-4.520;2024-02-26T09:19:16;6.45;;;1.80;;
75614;SDS011;64199;48.578;-4.520;2024-02-26T09:21:43;5.43;;;1.75;;
75614;SDS011;64199;48.578;-4.520;2024-02-26T09:24:09;6.10;;;1.75;;
75614;SDS011;64199;48.578;-4.520;2024-02-26T09:26:36;5.50;;;1.83;;
75614;SDS011;64199;48.578;-4.520;2024-02-26T09:29:02;4.10;;;1.42;;
75614;SDS011;64199;48.578;-4.520;2024-02-26T09:31:29;5.43;;;1.98;;
75614;SDS011;64199;48.578;-4.520;2024-02-26T09:33:55;5.05;;;1.55;;
75614;SDS011;64199;48.578;-4.520;2024-02-26T09:36:21;6.50;;;2.00;;
75614;SDS011;64199;48.578;-4.520;2024-02-26T09:38:47;6.55;;;2.17;;
75614;SDS011;64199;48.578;-4.520;2024-02-26T09:41:16;5.95;;;2.20;;
75614;SDS011;64199;48.578;-4.520;2024-02-26T09:43:43;4.85;;;1.80;;
75614;SDS011;64199;48.578;-4.520;2024-02-26T09:46:11;6.13;;;1.98;;
75614;SDS011;64199;48.578;-4.520;2024-02-26T09:48:37;6.53;;;1.50;;
75614;SDS011;64199;48.578;-4.520;2024-02-26T09:51:03;4.18;;;1.90;;
75614;SDS011;64199;48.578;-4.520;2024-02-26T09:53:30;5.60;;;2.17;;
75614;SDS011;64199;48.578;-4.520;2024-02-26T09:55:57;5.75;;;1.90;;
75614;SDS011;64199;48.578;-4.520;2024-02-26T09:58:24;5.25;;;1.92;;
75614;SDS011;64199;48.578;-4.520;2024-02-26T10:03:18;7.03;;;1.60;;
75614;SDS011;64199;48.578;-4.520;2024-02-26T10:05:47;4.50;;;1.50;;
75614;SDS011;64199;48.578;-4.520;2024-02-26T10:08:14;5.70;;;2.00;;
75614;SDS011;64199;48.578;-4.520;2024-02-26T10:10:40;5.82;;;2.15;;
75614;SDS011;64199;48.578;-4.520;2024-02-26T10:13:07;5.47;;;2.05;;
75614;SDS011;64199;48.578;-4.520;2024-02-26T10:15:35;4.25;;;1.30;;
75614;SDS011;64199;48.578;-4.520;2024-02-26T10:18:07;5.55;;;1.65;;
75614;SDS011;64199;48.578;-4.520;2024-02-26T10:20:33;5.70;;;1.52;;
75614;SDS011;64199;48.578;-4.520;2024-02-26T10:23:02;6.25;;;1.88;;
75614;SDS011;64199;48.578;-4.520;2024-02-26T10:25:28;3.65;;;1.50;;
75614;SDS011;64199;48.578;-4.520;2024-02-26T10:27:57;4.43;;;1.60;;
75614;SDS011;64199;48.578;-4.520;2024-02-26T10:30:27;6.55;;;1.60;;
75614;SDS011;64199;48.578;-4.520;2024-02-26T10:32:54;3.75;;;1.63;;
75614;SDS011;64199;48.578;-4.520;2024-02-26T10:35:20;4.80;;;1.77;;
75614;SDS011;64199;48.578;-4.520;2024-02-26T10:37:47;5.88;;;1.70;;
75614;SDS011;64199;48.578;-4.520;2024-02-26T10:40:14;3.47;;;1.80;;
75614;SDS011;64199;48.578;-4.520;2024-02-26T10:42:41;7.47;;;1.90;;
75614;SDS011;64199;48.578;-4.520;2024-02-26T10:45:08;7.65;;;2.13;;
75614;SDS011;64199;48.578;-4.520;2024-02-26T10:47:34;5.03;;;2.00;;
75614;SDS011;64199;48.578;-4.520;2024-02-26T10:50:01;3.90;;;1.73;;
75614;SDS011;64199;48.578;-4.520;2024-02-26T10:52:31;4.38;;;1.85;;
75614;SDS011;64199;48.578;-4.520;2024-02-26T10:55:01;5.55;;;1.63;;
75614;SDS011;64199;48.578;-4.520;2024-02-26T10:57:31;4.72;;;1.75;;
75614;SDS011;64199;48.578;-4.520;2024-02-26T11:00:05;4.53;;;1.63;;
75614;SDS011;64199;48.578;-4.520;2024-02-26T11:02:34;5.20;;;1.52;;
75614;SDS011;64199;48.578;-4.520;2024-02-26T11:05:04;3.75;;;1.40;;
75614;SDS011;64199;48.578;-4.520;2024-02-26T11:07:31;5.78;;;1.70;;
75614;SDS011;64199;48.578;-4.520;2024-02-26T11:09:59;5.27;;;1.50;;
75614;SDS011;64199;48.578;-4.520;2024-02-26T11:12:27;3.90;;;1.55;;
75614;SDS011;64199;48.578;-4.520;2024-02-26T11:14:57;4.68;;;1.48;;
75614;SDS011;64199;48.578;-4.520;2024-02-26T11:17:27;5.85;;;1.92;;
75614;SDS011;64199;48.578;-4.520;2024-02-26T11:19:57;4.25;;;1.50;;
75614;SDS011;64199;48.578;-4.520;2024-02-26T11:22:25;6.55;;;1.52;;
75614;SDS011;64199;48.578;-4.520;2024-02-26T11:24:52;4.17;;;1.40;;
75614;SDS011;64199;48.578;-4.520;2024-02-26T11:27:21;7.97;;;2.10;;
75614;SDS011;64199;48.578;-4.520;2024-02-26T11:29:55;6.30;;;1.67;;
75614;SDS011;64199;48.578;-4.520;2024-02-26T11:32:24;8.25;;;1.40;;
75614;SDS011;64199;48.578;-4.520;2024-02-26T11:34:55;5.80;;;1.70;;
75614;SDS011;64199;48.578;-4.520;2024-02-26T11:37:23;5.70;;;1.52;;
75614;SDS011;64199;48.578;-4.520;2024-02-26T11:39:51;4.40;;;1.27;;
75614;SDS011;64199;48.578;-4.520;2024-02-26T11:42:17;4.75;;;1.58;;
75614;SDS011;64199;48.578;-4.520;2024-02-26T11:44:49;5.82;;;1.67;;
75614;SDS011;64199;48.578;-4.520;2024-02-26T11:47:19;3.63;;;1.45;;
75614;SDS011;64199;48.578;-4.520;2024-02-26T11:49:46;3.47;;;1.45;;
75614;SDS011;64199;48.578;-4.520;2024-02-26T11:52:13;4.32;;;1.45;;
75614;SDS011;64199;48.578;-4.520;2024-02-26T11:54:52;4.75;;;1.38;;
75614;SDS011;64199;48.578;-4.520;2024-02-26T11:59:48;4.70;;;1.45;;
75614;SDS011;64199;48.578;-4.520;2024-02-26T12:05:18;6.03;;;1.63;;
75614;SDS011;64199;48.578;-4.520;2024-02-26T12:07:46;4.82;;;1.42;;
75614;SDS011;64199;48.578;-4.520;2024-02-26T12:10:26;2.88;;;1.23;;
75614;SDS011;64199;48.578;-4.520;2024-02-26T12:12:59;3.08;;;1.30;;
75614;SDS011;64199;48.578;-4.520;2024-02-26T12:17:58;4.18;;;1.23;;
75614;SDS011;64199;48.578;-4.520;2024-02-26T12:22:51;3.35;;;1.42;;
75614;SDS011;64199;48.578;-4.520;2024-02-26T12:25:24;3.83;;;1.42;;
75614;SDS011;64199;48.578;-4.520;2024-02-26T12:27:52;10.13;;;1.45;;
75614;SDS011;64199;48.578;-4.520;2024-02-26T12:30:21;3.42;;;1.40;;
75614;SDS011;64199;48.578;-4.520;2024-02-26T12:32:48;5.35;;;1.63;;
75614;SDS011;64199;48.578;-4.520;2024-02-26T12:35:15;4.47;;;1.00;;
75614;SDS011;64199;48.578;-4.520;2024-02-26T12:37:45;3.20;;;1.42;;
75614;SDS011;64199;48.578;-4.520;2024-02-26T12:40:12;4.97;;;1.50;;
75614;SDS011;64199;48.578;-4.520;2024-02-26T12:42:38;3.65;;;1.10;;
75614;SDS011;64199;48.578;-4.520;2024-02-26T12:45:06;4.10;;;1.48;;
75614;SDS011;64199;48.578;-4.520;2024-02-26T12:47:37;3.38;;;1.33;;
75614;SDS011;64199;48.578;-4.520;2024-02-26T12:50:03;4.40;;;1.63;;
75614;SDS011;64199;48.578;-4.520;2024-02-26T12:52:33;4.97;;;1.30;;
75614;SDS011;64199;48.578;-4.520;2024-02-26T12:55:03;5.85;;;1.65;;
75614;SDS011;64199;48.578;-4.520;2024-02-26T12:57:35;4.05;;;1.35;;
75614;SDS011;64199;48.578;-4.520;2024-02-26T13:00:03;3.33;;;1.40;;
75614;SDS011;64199;48.578;-4.520;2024-02-26T13:02:31;4.78;;;1.17;;
75614;SDS011;64199;48.578;-4.520;2024-02-26T13:04:59;2.95;;;1.25;;
75614;SDS011;64199;48.578;-4.520;2024-02-26T13:07:26;3.40;;;1.20;;
75614;SDS011;64199;48.578;-4.520;2024-02-26T13:09:53;3.08;;;1.27;;
75614;SDS011;64199;48.578;-4.520;2024-02-26T13:12:18;5.93;;;1.38;;
75614;SDS011;64199;48.578;-4.520;2024-02-26T13:14:44;7.88;;;1.70;;
75614;SDS011;64199;48.578;-4.520;2024-02-26T13:17:10;5.07;;;1.20;;
75614;SDS011;64199;48.578;-4.520;2024-02-26T13:19:36;6.50;;;1.70;;
75614;SDS011;64199;48.578;-4.520;2024-02-26T13:22:06;4.57;;;1.30;;
75614;SDS011;64199;48.578;-4.520;2024-02-26T13:24:33;5.70;;;1.40;;
75614;SDS011;64199;48.578;-4.520;2024-02-26T13:26:59;3.08;;;1.00;;
75614;SDS011;64199;48.578;-4.520;2024-02-26T13:29:26;3.97;;;1.35;;
75614;SDS011;64199;48.578;-4.520;2024-02-26T13:31:55;3.95;;;1.10;;
75614;SDS011;64199;48.578;-4.520;2024-02-26T13:34:23;7.05;;;1.42;;
75614;SDS011;64199;48.578;-4.520;2024-02-26T13:36:56;3.95;;;1.30;;
75614;SDS011;64199;48.578;-4.520;2024-02-26T13:39:22;2.70;;;1.17;;
75614;SDS011;64199;48.578;-4.520;2024-02-26T13:41:49;3.50;;;1.02;;
75614;SDS011;64199;48.578;-4.520;2024-02-26T13:44:16;3.55;;;1.45;;
75614;SDS011;64199;48.578;-4.520;2024-02-26T13:46:42;3.45;;;1.10;;
75614;SDS011;64199;48.578;-4.520;2024-02-26T13:49:08;3.85;;;1.40;;
75614;SDS011;64199;48.578;-4.520;2024-02-26T13:51:36;3.72;;;1.17;;
75614;SDS011;64199;48.578;-4.520;2024-02-26T13:54:02;4.55;;;1.30;;
75614;SDS011;64199;48.578;-4.520;2024-02-26T13:56:29;4.40;;;1.33;;
75614;SDS011;64199;48.578;-4.520;2024-02-26T13:58:56;4.15;;;1.50;;
75614;SDS011;64199;48.578;-4.520;2024-02-26T14:01:22;4.93;;;1.55;;
75614;SDS011;64199;48.578;-4.520;2024-02-26T14:03:48;4.43;;;1.40;;
75614;SDS011;64199;48.578;-4.520;2024-02-26T14:06:14;3.00;;;1.35;;
75614;SDS011;64199;48.578;-4.520;2024-02-26T14:08:40;3.28;;;1.58;;
75614;SDS011;64199;48.578;-4.520;2024-02-26T14:11:06;4.05;;;1.48;;
75614;SDS011;64199;48.578;-4.520;2024-02-26T14:13:32;7.40;;;1.15;;
75614;SDS011;64199;48.578;-4.520;2024-02-26T14:15:58;5.90;;;1.60;;
75614;SDS011;64199;48.578;-4.520;2024-02-26T14:18:24;3.38;;;1.00;;
75614;SDS011;64199;48.578;-4.520;2024-02-26T14:20:50;1.65;;;0.80;;
75614;SDS011;64199;48.578;-4.520;2024-02-26T14:23:16;2.60;;;1.05;;
75614;SDS011;64199;48.578;-4.520;2024-02-26T14:25:42;3.40;;;1.55;;
75614;SDS011;64199;48.578;-4.520;2024-02-26T14:28:08;3.60;;;1.30;;
75614;SDS011;64199;48.578;-4.520;2024-02-26T14:30:34;2.85;;;1.02;;
75614;SDS011;64199;48.578;-4.520;2024-02-26T14:33:00;4.13;;;1.55;;
75614;SDS011;64199;48.578;-4.520;2024-02-26T14:35:25;3.17;;;1.13;;
75614;SDS011;64199;48.578;-4.520;2024-02-26T14:37:51;2.60;;;1.10;;
75614;SDS011;64199;48.578;-4.520;2024-02-26T14:40:17;2.90;;;1.00;;
75614;SDS011;64199;48.578;-4.520;2024-02-26T14:42:44;4.38;;;1.48;;